Time;durP1;ratioP1;P1;durP2;ratioP2;P2;SDS_P1;SDS_P2;PMS_P1;PMS_P2;Temp;Humidity;BMP_temperature;BMP_pressure;BME280_temperature;BME280_humidity;BME280_pressure;Samples;Min_cycle;Max_cycle;Signal;HPM_P1;HPM_P2
2022/05/23 00:00:08;;;;;;;14.35;2.97;;;;;;;;;;4972072;28;20045;-73
2022/05/23 00:02:34;;;;;;;22.50;3.90;;;;;;;;;;4976806;28;20030;-73
2022/05/23 00:05:01;;;;;;;19.73;3.33;;;;;;;;;;4977394;28;20054;-73
2022/05/23 00:07:30;;;;;;;11.25;3.65;;;;;;;;;;4980095;28;20046;-74
2022/05/23 00:09:56;;;;;;;21.08;3.03;;;;;;;;;;4982494;28;20043;-73
2022/05/23 00:12:22;;;;;;;15.10;3.33;;;;;;;;;;4981368;28;20061;-74
2022/05/23 00:14:49;;;;;;;13.35;3.58;;;;;;;;;;4983031;28;20112;-74
2022/05/23 00:17:15;;;;;;;16.60;3.88;;;;;;;;;;4982113;28;20042;-73
2022/05/23 00:19:42;;;;;;;14.65;3.40;;;;;;;;;;4983268;28;20085;-74
2022/05/23 00:22:08;;;;;;;14.95;3.70;;;;;;;;;;4980364;28;20031;-73
2022/05/23 00:24:34;;;;;;;18.98;3.80;;;;;;;;;;4983488;28;20149;-73
2022/05/23 00:27:00;;;;;;;13.40;4.18;;;;;;;;;;4983203;28;20085;-73
2022/05/23 00:29:26;;;;;;;12.43;3.58;;;;;;;;;;4981049;28;20042;-73
2022/05/23 00:37:22;;;;;;;16.33;3.47;;;;;;;;;;4983348;28;20057;-73
2022/05/23 00:39:48;;;;;;;15.75;4.03;;;;;;;;;;4982361;28;20349;-73
2022/05/23 00:45:01;;;;;;;12.68;3.70;;;;;;;;;;4980893;28;20951;-73
2022/05/23 00:47:28;;;;;;;13.82;3.83;;;;;;;;;;4979952;28;20043;-73
2022/05/23 00:49:54;;;;;;;16.65;3.65;;;;;;;;;;4982339;28;20031;-73
2022/05/23 00:52:24;;;;;;;11.52;3.60;;;;;;;;;;4979411;28;20037;-73
2022/05/23 00:54:50;;;;;;;15.68;3.65;;;;;;;;;;4983637;28;20138;-73
2022/05/23 00:57:21;;;;;;;13.82;3.67;;;;;;;;;;4979437;28;20551;-73
2022/05/23 00:59:48;;;;;;;16.13;3.72;;;;;;;;;;4983396;28;20069;-73
2022/05/23 01:02:14;;;;;;;14.20;3.60;;;;;;;;;;4977392;28;20235;-74
2022/05/23 01:04:41;;;;;;;14.15;2.92;;;;;;;;;;4982868;28;20121;-73
2022/05/23 01:07:07;;;;;;;22.92;4.45;;;;;;;;;;4984521;28;20514;-73
2022/05/23 01:09:33;;;;;;;13.10;3.33;;;;;;;;;;4984330;28;20038;-74
2022/05/23 01:12:00;;;;;;;13.93;3.08;;;;;;;;;;4984725;28;20110;-73
2022/05/23 01:14:26;;;;;;;16.77;3.22;;;;;;;;;;4978094;28;20070;-73
2022/05/23 01:16:52;;;;;;;18.08;3.25;;;;;;;;;;4977889;28;20077;-74
2022/05/23 01:19:19;;;;;;;17.30;3.97;;;;;;;;;;4985135;28;20048;-74
2022/05/23 01:22:02;;;;;;;12.50;3.22;;;;;;;;;;4984520;28;20099;-73
2022/05/23 01:24:32;;;;;;;12.55;2.97;;;;;;;;;;4978452;28;20042;-73
2022/05/23 01:26:58;;;;;;;14.40;3.10;;;;;;;;;;4981088;28;20034;-73
2022/05/23 01:29:24;;;;;;;12.57;3.45;;;;;;;;;;4977536;28;20392;-74
2022/05/23 01:31:50;;;;;;;12.38;3.08;;;;;;;;;;4982062;28;20034;-74
2022/05/23 01:34:17;;;;;;;15.95;3.40;;;;;;;;;;4983368;28;20045;-73
2022/05/23 01:36:43;;;;;;;13.88;3.28;;;;;;;;;;4982231;28;20045;-74
2022/05/23 01:39:09;;;;;;;18.55;3.20;;;;;;;;;;4982273;28;20392;-73
2022/05/23 01:41:35;;;;;;;15.45;3.47;;;;;;;;;;4981812;28;20038;-73
2022/05/23 01:44:01;;;;;;;16.15;3.50;;;;;;;;;;4982407;28;20479;-73
2022/05/23 01:46:27;;;;;;;11.55;3.42;;;;;;;;;;4985232;28;20034;-73
2022/05/23 01:48:54;;;;;;;14.18;3.25;;;;;;;;;;4982866;28;20045;-73
2022/05/23 01:51:20;;;;;;;12.85;3.75;;;;;;;;;;4984022;28;20038;-73
2022/05/23 01:53:46;;;;;;;11.57;3.28;;;;;;;;;;4983104;28;20050;-73
2022/05/23 01:56:12;;;;;;;18.13;3.75;;;;;;;;;;4976131;28;20057;-73
2022/05/23 02:01:25;;;;;;;15.93;3.47;;;;;;;;;;4982903;28;20058;-73
2022/05/23 02:03:51;;;;;;;17.13;3.45;;;;;;;;;;4985213;28;20022;-73
2022/05/23 02:06:17;;;;;;;15.45;3.72;;;;;;;;;;4982356;28;20408;-73
2022/05/23 02:08:43;;;;;;;15.68;2.95;;;;;;;;;;4983045;28;20034;-73
2022/05/23 02:11:09;;;;;;;15.90;3.60;;;;;;;;;;4982298;28;20045;-73
2022/05/23 02:13:37;;;;;;;15.55;3.70;;;;;;;;;;4979455;28;20042;-73
2022/05/23 02:16:03;;;;;;;19.17;2.80;;;;;;;;;;4981799;28;20061;-73
2022/05/23 02:18:30;;;;;;;12.57;2.70;;;;;;;;;;4977019;28;20035;-74
2022/05/23 02:20:56;;;;;;;12.30;3.55;;;;;;;;;;4981145;28;20069;-73
2022/05/23 02:23:22;;;;;;;17.15;4.25;;;;;;;;;;4981273;28;20472;-73
2022/05/23 02:25:48;;;;;;;12.60;3.67;;;;;;;;;;4981153;28;20031;-73
2022/05/23 02:28:14;;;;;;;12.75;2.78;;;;;;;;;;4983473;28;20037;-73
2022/05/23 02:30:40;;;;;;;12.88;3.35;;;;;;;;;;4982891;28;20456;-74
2022/05/23 02:33:06;;;;;;;11.23;2.95;;;;;;;;;;4982029;28;20046;-73
2022/05/23 02:35:32;;;;;;;17.42;3.97;;;;;;;;;;4983122;28;20033;-73
2022/05/23 02:37:58;;;;;;;17.30;4.13;;;;;;;;;;4977128;28;20039;-73
2022/05/23 02:40:24;;;;;;;15.30;3.05;;;;;;;;;;4978894;28;20504;-73
2022/05/23 02:42:51;;;;;;;20.77;4.28;;;;;;;;;;4984236;28;20471;-73
2022/05/23 02:45:17;;;;;;;16.13;3.22;;;;;;;;;;4980142;28;20437;-73
2022/05/23 02:47:43;;;;;;;16.73;4.10;;;;;;;;;;4979064;28;20038;-73
2022/05/23 02:50:11;;;;;;;14.68;3.97;;;;;;;;;;4977797;28;20615;-73
2022/05/23 02:52:37;;;;;;;19.67;3.55;;;;;;;;;;4981519;28;20038;-73
2022/05/23 02:55:04;;;;;;;13.15;3.65;;;;;;;;;;4979797;28;20030;-73
2022/05/23 02:57:30;;;;;;;16.55;3.55;;;;;;;;;;4979172;28;20041;-73
2022/05/23 02:59:56;;;;;;;12.82;3.15;;;;;;;;;;4979688;28;20034;-73
2022/05/23 03:05:07;;;;;;;17.58;4.03;;;;;;;;;;4978637;28;20583;-73
2022/05/23 03:07:33;;;;;;;15.30;4.30;;;;;;;;;;4981923;28;20603;-73
2022/05/23 03:09:59;;;;;;;16.58;3.90;;;;;;;;;;4982577;28;20031;-73
2022/05/23 03:12:27;;;;;;;12.13;3.28;;;;;;;;;;4984463;28;20049;-73
2022/05/23 03:14:53;;;;;;;15.75;3.42;;;;;;;;;;4984152;28;20042;-73
2022/05/23 03:17:19;;;;;;;13.10;3.08;;;;;;;;;;4981161;28;20038;-73
2022/05/23 03:19:45;;;;;;;14.80;2.70;;;;;;;;;;4980353;28;20046;-74
2022/05/23 03:27:43;;;;;;;13.57;3.78;;;;;;;;;;4983801;28;20137;-73
2022/05/23 03:30:09;;;;;;;15.88;3.40;;;;;;;;;;4978305;28;20043;-73
2022/05/23 03:32:35;;;;;;;13.65;3.45;;;;;;;;;;4978750;28;20122;-73
2022/05/23 03:35:02;;;;;;;16.95;4.10;;;;;;;;;;4979850;28;20066;-73
2022/05/23 03:37:28;;;;;;;12.38;3.60;;;;;;;;;;4968735;28;20047;-73
2022/05/23 03:39:54;;;;;;;15.55;3.65;;;;;;;;;;4980023;28;20077;-73
2022/05/23 03:42:20;;;;;;;13.68;3.20;;;;;;;;;;4980113;28;20046;-73
2022/05/23 03:44:46;;;;;;;16.20;3.00;;;;;;;;;;4979106;28;20404;-73
2022/05/23 03:47:12;;;;;;;23.45;3.33;;;;;;;;;;4983955;28;20081;-73
2022/05/23 03:49:38;;;;;;;16.02;3.92;;;;;;;;;;4985677;28;20057;-73
2022/05/23 03:52:04;;;;;;;16.40;3.20;;;;;;;;;;4984972;28;20035;-73
2022/05/23 03:54:30;;;;;;;11.98;2.90;;;;;;;;;;4987075;28;20062;-73
2022/05/23 03:57:00;;;;;;;17.70;3.47;;;;;;;;;;4987489;28;20134;-73
2022/05/23 03:59:27;;;;;;;13.77;3.90;;;;;;;;;;4983162;28;20113;-73
2022/05/23 04:01:54;;;;;;;17.85;3.78;;;;;;;;;;4982434;28;20077;-73
2022/05/23 04:04:20;;;;;;;17.38;4.00;;;;;;;;;;4982095;28;20035;-73
2022/05/23 04:06:47;;;;;;;16.02;3.70;;;;;;;;;;4985008;28;20141;-73
2022/05/23 04:09:13;;;;;;;12.55;3.38;;;;;;;;;;4986374;28;20055;-73
2022/05/23 04:11:39;;;;;;;13.52;3.90;;;;;;;;;;4986694;28;20797;-73
2022/05/23 04:14:05;;;;;;;16.27;3.85;;;;;;;;;;4986118;28;20030;-73
2022/05/23 04:16:31;;;;;;;17.27;3.95;;;;;;;;;;4983525;28;20030;-73
2022/05/23 04:18:57;;;;;;;15.27;3.97;;;;;;;;;;4981244;28;20114;-73
2022/05/23 04:21:24;;;;;;;13.95;4.13;;;;;;;;;;4984347;28;20034;-73
2022/05/23 04:23:50;;;;;;;15.90;4.00;;;;;;;;;;4988162;28;20399;-73
2022/05/23 04:26:16;;;;;;;15.75;4.10;;;;;;;;;;4987991;28;20121;-73
2022/05/23 04:28:42;;;;;;;18.90;4.32;;;;;;;;;;4983500;28;20150;-73
2022/05/23 04:31:09;;;;;;;15.73;3.67;;;;;;;;;;4985683;28;20043;-73
2022/05/23 04:36:20;;;;;;;13.35;4.65;;;;;;;;;;4987264;28;20037;-73
2022/05/23 04:38:46;;;;;;;19.58;4.35;;;;;;;;;;4985407;28;20053;-73
2022/05/23 04:41:12;;;;;;;17.70;4.03;;;;;;;;;;4984470;28;20042;-73
2022/05/23 04:43:38;;;;;;;21.60;4.25;;;;;;;;;;4985936;28;20030;-73
2022/05/23 04:46:04;;;;;;;22.50;4.05;;;;;;;;;;4987298;28;20049;-73
2022/05/23 04:51:15;;;;;;;27.65;5.88;;;;;;;;;;4984004;28;20076;-73
2022/05/23 04:53:41;;;;;;;21.83;4.28;;;;;;;;;;4986021;28;20854;-73
2022/05/23 04:56:07;;;;;;;20.25;4.50;;;;;;;;;;4981941;28;20113;-73
2022/05/23 04:58:33;;;;;;;14.27;4.10;;;;;;;;;;4978866;28;20062;-73
2022/05/23 05:01:00;;;;;;;19.70;4.07;;;;;;;;;;4984451;28;20066;-73
2022/05/23 05:03:26;;;;;;;16.50;4.00;;;;;;;;;;4982534;28;20041;-73
2022/05/23 05:05:52;;;;;;;14.25;4.50;;;;;;;;;;4984113;28;20109;-73
2022/05/23 05:08:18;;;;;;;17.60;4.00;;;;;;;;;;4984391;28;20041;-73
2022/05/23 05:10:45;;;;;;;16.25;4.25;;;;;;;;;;4983857;28;20490;-73
2022/05/23 05:13:11;;;;;;;10.13;3.35;;;;;;;;;;4982324;28;20404;-73
2022/05/23 05:15:37;;;;;;;22.50;5.43;;;;;;;;;;4982081;28;20034;-72
2022/05/23 05:18:03;;;;;;;12.35;4.95;;;;;;;;;;4985893;28;20034;-72
2022/05/23 05:20:29;;;;;;;18.20;5.18;;;;;;;;;;4980259;28;20073;-72
2022/05/23 05:22:56;;;;;;;15.48;5.10;;;;;;;;;;4981962;28;20053;-72
2022/05/23 05:25:22;;;;;;;17.30;4.88;;;;;;;;;;4979893;28;20076;-73
2022/05/23 05:27:48;;;;;;;18.90;4.10;;;;;;;;;;4983462;28;20035;-72
2022/05/23 05:30:19;;;;;;;13.50;4.32;;;;;;;;;;4982978;28;20564;-73
2022/05/23 05:32:48;;;;;;;24.10;5.15;;;;;;;;;;4983745;28;20037;-72
2022/05/23 05:35:33;;;;;;;22.45;4.75;;;;;;;;;;4985339;28;20114;-72
2022/05/23 05:38:05;;;;;;;21.00;4.88;;;;;;;;;;4980357;28;20045;-72
2022/05/23 05:40:33;;;;;;;26.42;5.45;;;;;;;;;;4983050;28;20112;-72
2022/05/23 05:43:02;;;;;;;23.80;5.30;;;;;;;;;;4985987;28;20052;-73
2022/05/23 05:45:31;;;;;;;19.38;5.30;;;;;;;;;;4985269;28;20034;-72
2022/05/23 05:47:57;;;;;;;18.80;5.28;;;;;;;;;;4982073;28;20121;-72
2022/05/23 05:50:28;;;;;;;16.23;4.68;;;;;;;;;;4979362;28;20042;-72
2022/05/23 05:52:57;;;;;;;19.60;5.47;;;;;;;;;;4980094;28;20038;-73
2022/05/23 05:55:23;;;;;;;23.05;5.78;;;;;;;;;;4983023;28;20026;-73
2022/05/23 05:57:49;;;;;;;15.30;4.63;;;;;;;;;;4980471;28;20809;-73
2022/05/23 06:00:15;;;;;;;18.35;4.75;;;;;;;;;;4979613;28;20752;-73
2022/05/23 06:02:41;;;;;;;20.63;5.85;;;;;;;;;;4981388;28;20034;-73
2022/05/23 06:05:08;;;;;;;15.80;4.88;;;;;;;;;;4982915;28;20049;-73
2022/05/23 06:13:04;;;;;;;19.55;4.80;;;;;;;;;;4983229;28;20065;-73
2022/05/23 06:15:30;;;;;;;19.65;4.82;;;;;;;;;;4985418;28;20388;-73
2022/05/23 06:17:56;;;;;;;28.13;5.97;;;;;;;;;;4987042;28;20476;-73
2022/05/23 06:20:23;;;;;;;22.45;5.10;;;;;;;;;;4981795;28;20042;-73
2022/05/23 06:22:50;;;;;;;16.83;5.53;;;;;;;;;;4982838;28;20432;-73
2022/05/23 06:25:16;;;;;;;22.95;5.00;;;;;;;;;;4980689;28;20080;-73
2022/05/23 06:27:43;;;;;;;19.23;5.47;;;;;;;;;;4985956;28;20506;-73
2022/05/23 06:30:10;;;;;;;20.52;5.25;;;;;;;;;;4984891;28;20117;-73
2022/05/23 06:32:36;;;;;;;26.85;5.28;;;;;;;;;;4986560;28;20057;-73
2022/05/23 06:35:07;;;;;;;25.05;5.13;;;;;;;;;;4983052;28;20125;-73
2022/05/23 06:37:34;;;;;;;29.27;5.65;;;;;;;;;;4984962;28;20699;-73
2022/05/23 06:40:00;;;;;;;18.67;5.95;;;;;;;;;;4985377;28;20044;-73
2022/05/23 06:42:26;;;;;;;30.52;6.15;;;;;;;;;;4985649;28;20050;-73
2022/05/23 06:44:52;;;;;;;26.77;5.97;;;;;;;;;;4981810;28;20274;-73
2022/05/23 06:47:18;;;;;;;21.67;6.18;;;;;;;;;;4986875;28;20042;-73
2022/05/23 06:49:44;;;;;;;29.92;5.57;;;;;;;;;;4985421;28;20037;-73
2022/05/23 06:52:10;;;;;;;19.42;5.63;;;;;;;;;;4979879;28;20394;-73
2022/05/23 06:54:36;;;;;;;26.23;5.93;;;;;;;;;;4983365;28;20031;-73
2022/05/23 06:57:03;;;;;;;22.50;5.60;;;;;;;;;;4985230;28;20037;-73
2022/05/23 06:59:29;;;;;;;20.48;4.97;;;;;;;;;;4984590;28;20038;-73
2022/05/23 07:01:55;;;;;;;18.13;4.72;;;;;;;;;;4983769;28;20080;-72
2022/05/23 07:04:21;;;;;;;21.88;4.78;;;;;;;;;;4984996;28;20039;-73
2022/05/23 07:12:27;;;;;;;28.05;6.65;;;;;;;;;;4980438;28;20092;-73
2022/05/23 07:14:54;;;;;;;23.90;6.03;;;;;;;;;;4983323;28;20518;-73
2022/05/23 07:17:21;;;;;;;22.67;5.00;;;;;;;;;;4987346;28;20041;-73
2022/05/23 07:19:47;;;;;;;24.85;6.18;;;;;;;;;;4986536;28;20121;-73
2022/05/23 07:22:13;;;;;;;17.85;5.25;;;;;;;;;;4988533;28;20077;-73
2022/05/23 07:24:40;;;;;;;25.58;5.80;;;;;;;;;;4989839;28;20109;-73
2022/05/23 07:27:06;;;;;;;21.50;5.60;;;;;;;;;;5040349;23;20061;-73
2022/05/23 07:29:32;;;;;;;21.73;4.57;;;;;;;;;;5038014;28;20429;-73
2022/05/23 07:31:58;;;;;;;18.50;4.72;;;;;;;;;;5043314;28;20025;-73
2022/05/23 07:34:25;;;;;;;24.67;4.97;;;;;;;;;;5037808;28;21048;-73
2022/05/23 07:36:51;;;;;;;21.55;5.55;;;;;;;;;;5040302;28;20526;-73
2022/05/23 07:39:17;;;;;;;15.75;4.03;;;;;;;;;;5044864;28;20041;-73
2022/05/23 07:41:44;;;;;;;23.58;4.28;;;;;;;;;;5041947;28;20041;-73
2022/05/23 07:44:11;;;;;;;19.92;4.43;;;;;;;;;;5033809;28;20044;-73
2022/05/23 07:46:37;;;;;;;15.60;4.00;;;;;;;;;;5041009;28;20037;-73
2022/05/23 07:49:04;;;;;;;18.63;4.00;;;;;;;;;;5037673;28;20367;-73
2022/05/23 07:51:32;;;;;;;17.63;4.00;;;;;;;;;;5038618;28;20067;-73
2022/05/23 08:02:13;;;;;;;14.20;3.20;;;;;;;;;;5042478;28;20078;-73
2022/05/23 08:04:39;;;;;;;16.50;4.25;;;;;;;;;;5043246;28;20041;-73
2022/05/23 08:07:07;;;;;;;14.50;3.35;;;;;;;;;;5038930;28;20144;-73
2022/05/23 08:09:33;;;;;;;17.40;3.90;;;;;;;;;;5040060;28;20056;-73
2022/05/23 08:12:00;;;;;;;19.67;3.53;;;;;;;;;;5040459;28;20044;-73
2022/05/23 08:14:26;;;;;;;18.17;3.25;;;;;;;;;;5041006;28;20036;-73
2022/05/23 08:16:52;;;;;;;15.65;3.53;;;;;;;;;;5040258;28;20055;-73
2022/05/23 08:19:18;;;;;;;23.00;4.45;;;;;;;;;;5037819;28;20075;-74
2022/05/23 08:21:48;;;;;;;17.52;4.32;;;;;;;;;;5033761;28;20052;-73
2022/05/23 08:24:14;;;;;;;14.75;3.47;;;;;;;;;;5037446;28;20151;-73
2022/05/23 08:26:40;;;;;;;20.38;5.30;;;;;;;;;;5036679;28;20059;-73
2022/05/23 08:29:07;;;;;;;19.75;4.70;;;;;;;;;;5041576;28;20029;-73
2022/05/23 08:31:33;;;;;;;16.00;4.07;;;;;;;;;;5036314;28;20033;-73
2022/05/23 08:33:59;;;;;;;15.68;4.18;;;;;;;;;;5041394;28;20025;-71
2022/05/23 08:36:25;;;;;;;18.90;4.63;;;;;;;;;;5039795;28;20040;-73
2022/05/23 08:38:51;;;;;;;16.52;4.55;;;;;;;;;;5039593;28;20020;-73
2022/05/23 08:41:19;;;;;;;22.13;4.75;;;;;;;;;;5038280;28;20088;-73
2022/05/23 08:43:57;;;;;;;19.17;4.20;;;;;;;;;;5040385;28;20386;-73
2022/05/23 08:46:30;;;;;;;17.75;3.63;;;;;;;;;;5038577;28;20037;-73
2022/05/23 08:49:01;;;;;;;20.75;4.45;;;;;;;;;;5043328;28;20033;-73
2022/05/23 08:51:36;;;;;;;18.30;3.77;;;;;;;;;;5040443;28;20056;-73
2022/05/23 08:54:17;;;;;;;17.90;4.18;;;;;;;;;;5037990;28;20036;-74
2022/05/23 08:56:45;;;;;;;16.05;4.20;;;;;;;;;;5037373;28;20033;-73
2022/05/23 08:59:20;;;;;;;20.42;4.65;;;;;;;;;;5041101;28;20374;-73
2022/05/23 09:01:49;;;;;;;18.20;3.92;;;;;;;;;;5036689;28;20029;-73
2022/05/23 09:04:30;;;;;;;21.05;4.57;;;;;;;;;;5040613;28;20089;-73
2022/05/23 09:06:56;;;;;;;18.77;4.63;;;;;;;;;;5040560;28;20045;-73
2022/05/23 09:09:24;;;;;;;15.43;3.67;;;;;;;;;;5037412;28;20459;-73
2022/05/23 09:11:52;;;;;;;19.15;4.35;;;;;;;;;;5038578;28;20116;-73
2022/05/23 09:14:19;;;;;;;16.52;4.00;;;;;;;;;;5037641;28;20074;-73
2022/05/23 09:16:52;;;;;;;17.88;4.68;;;;;;;;;;5037657;28;20040;-73
2022/05/23 09:19:32;;;;;;;17.67;4.15;;;;;;;;;;5036234;28;20151;-72
2022/05/23 09:22:13;;;;;;;19.45;4.13;;;;;;;;;;5039979;28;20127;-73
2022/05/23 09:24:42;;;;;;;18.15;4.97;;;;;;;;;;5035091;28;20718;-73
2022/05/23 09:27:13;;;;;;;18.58;4.68;;;;;;;;;;5030690;28;20061;-73
2022/05/23 09:29:39;;;;;;;14.90;3.85;;;;;;;;;;5036308;28;20376;-73
2022/05/23 09:32:10;;;;;;;20.33;4.32;;;;;;;;;;5036671;28;20041;-73
2022/05/23 09:34:37;;;;;;;19.10;4.07;;;;;;;;;;5037147;28;20029;-73
2022/05/23 09:37:04;;;;;;;17.88;4.20;;;;;;;;;;5042716;28;20116;-73
2022/05/23 09:39:34;;;;;;;19.08;4.38;;;;;;;;;;5035262;28;20700;-73
2022/05/23 09:47:45;;;;;;;22.65;5.22;;;;;;;;;;5039579;28;20477;-73
2022/05/23 09:50:11;;;;;;;19.85;4.97;;;;;;;;;;5037152;28;20615;-73
2022/05/23 09:52:48;;;;;;;12.90;3.78;;;;;;;;;;5035718;28;20929;-73
2022/05/23 09:55:23;;;;;;;16.92;5.07;;;;;;;;;;5037359;28;20033;-73
2022/05/23 09:57:53;;;;;;;14.13;4.47;;;;;;;;;;5036001;28;20047;-73
2022/05/23 10:00:22;;;;;;;17.07;5.13;;;;;;;;;;5036728;28;20454;-73
2022/05/23 10:02:53;;;;;;;16.35;5.38;;;;;;;;;;5034731;28;20032;-73
2022/05/23 10:05:27;;;;;;;16.88;4.43;;;;;;;;;;5034174;28;20072;-73
2022/05/23 10:07:54;;;;;;;18.17;4.97;;;;;;;;;;5036252;28;20079;-73
2022/05/23 10:10:23;;;;;;;16.20;4.75;;;;;;;;;;5040255;28;20072;-73
2022/05/23 10:12:50;;;;;;;15.15;5.00;;;;;;;;;;5038539;28;20021;-73
2022/05/23 10:15:24;;;;;;;15.90;4.70;;;;;;;;;;5039737;28;20059;-73
2022/05/23 10:18:08;;;;;;;14.25;4.60;;;;;;;;;;5033349;28;20025;-73
2022/05/23 10:20:39;;;;;;;21.48;4.95;;;;;;;;;;5042108;28;20120;-72
2022/05/23 10:23:07;;;;;;;17.13;4.28;;;;;;;;;;5035622;28;20090;-72
2022/05/23 10:25:52;;;;;;;12.38;4.57;;;;;;;;;;5034594;28;20437;-72
2022/05/23 10:28:23;;;;;;;16.92;4.97;;;;;;;;;;5035300;28;20047;-73
2022/05/23 10:30:56;;;;;;;14.32;4.50;;;;;;;;;;5032394;28;20044;-73
2022/05/23 10:33:27;;;;;;;14.45;5.15;;;;;;;;;;5033055;28;20800;-73
2022/05/23 10:36:02;;;;;;;13.20;4.70;;;;;;;;;;5033695;28;20064;-73
2022/05/23 10:44:22;;;;;;;12.18;4.50;;;;;;;;;;5036105;28;20818;-73
2022/05/23 10:46:54;;;;;;;15.55;5.28;;;;;;;;;;5033195;28;20108;-72
2022/05/23 10:49:21;;;;;;;19.55;4.88;;;;;;;;;;5035679;28;20068;-73
2022/05/23 10:51:56;;;;;;;14.82;4.60;;;;;;;;;;5031597;28;20044;-73
2022/05/23 10:54:31;;;;;;;17.58;4.70;;;;;;;;;;5035939;28;20416;-73
2022/05/23 10:57:04;;;;;;;13.80;4.90;;;;;;;;;;5036774;28;20472;-73
2022/05/23 10:59:33;;;;;;;13.52;4.05;;;;;;;;;;5035090;28;20029;-73
2022/05/23 11:02:08;;;;;;;16.13;4.65;;;;;;;;;;5034425;28;20051;-73
2022/05/23 11:04:56;;;;;;;17.95;4.50;;;;;;;;;;5035344;28;20462;-73
2022/05/23 11:07:22;;;;;;;14.13;4.47;;;;;;;;;;5033418;28;20124;-72
2022/05/23 11:09:51;;;;;;;13.35;4.68;;;;;;;;;;5034334;28;20025;-71
2022/05/23 11:12:27;;;;;;;18.83;3.92;;;;;;;;;;5034383;28;20124;-74
2022/05/23 11:15:13;;;;;;;15.82;4.40;;;;;;;;;;5031719;28;20070;-72
2022/05/23 11:17:48;;;;;;;12.82;4.22;;;;;;;;;;5028644;28;20770;-72
2022/05/23 11:20:14;;;;;;;15.35;3.88;;;;;;;;;;5037789;28;20330;-72
2022/05/23 11:22:45;;;;;;;15.27;4.63;;;;;;;;;;5032855;28;20664;-72
2022/05/23 11:25:11;;;;;;;15.32;5.38;;;;;;;;;;5035366;28;20091;-72
2022/05/23 11:36:00;;;;;;;16.05;4.47;;;;;;;;;;5018375;28;20874;-72
2022/05/23 11:38:28;;;;;;;11.85;4.28;;;;;;;;;;5021520;28;20045;-72
2022/05/23 11:41:02;;;;;;;14.68;4.28;;;;;;;;;;5018330;28;20035;-72
2022/05/23 11:43:28;;;;;;;12.18;3.97;;;;;;;;;;5018363;28;20067;-72
2022/05/23 11:45:57;;;;;;;15.60;4.35;;;;;;;;;;5011933;28;20484;-72
2022/05/23 11:48:35;;;;;;;15.00;3.90;;;;;;;;;;5017149;28;20034;-72
2022/05/23 11:51:09;;;;;;;14.93;4.45;;;;;;;;;;5018651;28;20375;-73
2022/05/23 11:53:37;;;;;;;15.38;4.03;;;;;;;;;;5018052;28;20030;-72
2022/05/23 11:56:09;;;;;;;11.50;3.50;;;;;;;;;;5013261;28;20032;-72
2022/05/23 11:58:34;;;;;;;;;;;;;;;;;;5017146;28;20146;-72
2022/05/23 12:01:15;;;;;;;17.33;4.68;;;;;;;;;;5020020;28;20024;-72
2022/05/23 12:03:48;;;;;;;17.58;4.55;;;;;;;;;;5016289;28;20391;-72
2022/05/23 12:06:34;;;;;;;13.73;4.40;;;;;;;;;;5020522;28;20037;-72
2022/05/23 12:09:00;;;;;;;9.30;3.97;;;;;;;;;;5021084;28;20046;-72
2022/05/23 12:11:27;;;;;;;12.80;4.60;;;;;;;;;;5023862;28;20028;-72
2022/05/23 12:13:58;;;;;;;15.18;5.28;;;;;;;;;;5024013;28;20120;-72
2022/05/23 12:16:30;;;;;;;20.08;4.75;;;;;;;;;;5025082;28;20552;-72
2022/05/23 12:19:07;;;;;;;12.73;3.75;;;;;;;;;;5026263;28;20122;-72
2022/05/23 12:21:36;;;;;;;15.25;4.72;;;;;;;;;;5022540;28;20029;-72
2022/05/23 12:24:13;;;;;;;11.20;4.82;;;;;;;;;;5026060;28;20051;-72
2022/05/23 12:26:39;;;;;;;17.52;4.05;;;;;;;;;;5025534;28;20068;-72
2022/05/23 12:29:24;;;;;;;10.40;3.58;;;;;;;;;;5019679;28;20040;-72
2022/05/23 12:32:05;;;;;;;13.43;4.38;;;;;;;;;;5024910;28;20418;-72
2022/05/23 12:34:33;;;;;;;15.20;3.92;;;;;;;;;;5019757;28;21001;-72
2022/05/23 12:36:59;;;;;;;14.93;4.80;;;;;;;;;;5022296;28;20029;-72
2022/05/23 12:39:25;;;;;;;14.77;4.60;;;;;;;;;;5019441;28;20710;-72
2022/05/23 12:41:51;;;;;;;15.35;4.65;;;;;;;;;;5023228;28;20033;-72
2022/05/23 12:44:23;;;;;;;15.85;5.03;;;;;;;;;;5025082;28;20075;-72
2022/05/23 12:47:01;;;;;;;20.98;4.97;;;;;;;;;;5021296;28;20059;-72
2022/05/23 12:49:42;;;;;;;19.80;5.78;;;;;;;;;;5023320;28;20419;-73
2022/05/23 12:52:35;;;;;;;12.45;4.75;;;;;;;;;;5024337;28;20025;-72
2022/05/23 12:55:11;;;;;;;13.05;4.45;;;;;;;;;;5021899;28;20041;-72
2022/05/23 12:57:56;;;;;;;12.55;4.43;;;;;;;;;;5024493;28;20041;-72
2022/05/23 13:00:23;;;;;;;12.82;3.90;;;;;;;;;;5023058;28;20112;-72
2022/05/23 13:02:59;;;;;;;16.85;4.85;;;;;;;;;;5022645;28;20045;-72
2022/05/23 13:05:29;;;;;;;17.23;4.18;;;;;;;;;;5021605;28;20650;-72
2022/05/23 13:08:09;;;;;;;12.82;3.75;;;;;;;;;;5023084;28;20474;-72
2022/05/23 13:10:36;;;;;;;15.40;3.67;;;;;;;;;;5019678;28;20029;-72
2022/05/23 13:13:05;;;;;;;20.73;3.17;;;;;;;;;;5023180;28;20037;-72
2022/05/23 13:15:32;;;;;;;13.10;3.28;;;;;;;;;;5020390;28;20117;-72
2022/05/23 13:23:33;;;;;;;11.18;2.80;;;;;;;;;;5022257;28;20048;-72
2022/05/23 13:26:05;;;;;;;15.38;3.38;;;;;;;;;;5023876;28;20136;-71
2022/05/23 13:28:31;;;;;;;13.13;2.75;;;;;;;;;;5021597;28;20139;-71
2022/05/23 13:30:57;;;;;;;7.00;2.78;;;;;;;;;;5019528;28;20612;-72
2022/05/23 13:33:30;;;;;;;10.85;2.75;;;;;;;;;;5025775;28;20064;-72
2022/05/23 13:35:58;;;;;;;9.70;2.30;;;;;;;;;;5021641;28;20071;-72
2022/05/23 13:38:24;;;;;;;12.00;2.58;;;;;;;;;;5024643;28;20124;-71
2022/05/23 13:40:52;;;;;;;11.68;3.17;;;;;;;;;;5022397;28;20029;-72
2022/05/23 13:43:34;;;;;;;9.13;2.40;;;;;;;;;;5023412;28;20076;-72
2022/05/23 13:46:09;;;;;;;15.48;3.08;;;;;;;;;;5017786;28;20026;-71
2022/05/23 13:48:38;;;;;;;13.75;2.45;;;;;;;;;;5021350;28;20045;-72
2022/05/23 13:51:06;;;;;;;10.68;3.00;;;;;;;;;;5020190;28;20080;-72
2022/05/23 13:53:37;;;;;;;10.10;2.47;;;;;;;;;;5016404;28;20062;-71
2022/05/23 13:56:03;;;;;;;11.00;2.40;;;;;;;;;;5018063;28;20443;-72
2022/05/23 13:58:33;;;;;;;7.97;2.35;;;;;;;;;;5019402;28;20516;-71
2022/05/23 14:01:01;;;;;;;9.25;2.63;;;;;;;;;;5022217;28;20356;-71
2022/05/23 14:03:44;;;;;;;11.30;2.83;;;;;;;;;;5018627;28;20067;-71
2022/05/23 14:06:16;;;;;;;13.07;2.83;;;;;;;;;;5019350;28;20040;-72
2022/05/23 14:08:42;;;;;;;;;;;;;;;;;;5024720;28;20045;-71
2022/05/23 14:11:09;;;;;;;14.02;2.85;;;;;;;;;;5023802;28;19920;-71
2022/05/23 14:13:36;;;;;;;18.55;2.63;;;;;;;;;;5018151;28;20033;-72
2022/05/23 14:16:03;;;;;;;24.20;3.50;;;;;;;;;;5023426;28;20480;-72
2022/05/23 14:18:31;;;;;;;37.80;4.30;;;;;;;;;;5024433;28;20033;-72
2022/05/23 14:20:57;;;;;;;27.73;3.00;;;;;;;;;;5017791;28;20037;-72
2022/05/23 14:23:25;;;;;;;20.13;2.58;;;;;;;;;;5020598;28;20064;-72
2022/05/23 14:25:54;;;;;;;27.63;2.67;;;;;;;;;;5022150;28;20120;-72
2022/05/23 14:28:22;;;;;;;22.98;3.30;;;;;;;;;;5017536;28;20044;-72
2022/05/23 14:30:52;;;;;;;19.98;3.28;;;;;;;;;;5018910;28;20037;-72
2022/05/23 14:33:36;;;;;;;19.80;2.42;;;;;;;;;;5012105;28;20033;-73
2022/05/23 14:36:16;;;;;;;37.28;3.97;;;;;;;;;;5016635;28;20069;-73
2022/05/23 14:38:43;;;;;;;61.42;4.93;;;;;;;;;;5015004;28;20032;-72
2022/05/23 14:41:42;;;;;;;19.63;2.92;;;;;;;;;;5017486;28;20042;-72
2022/05/23 14:44:17;;;;;;;25.95;3.80;;;;;;;;;;5022439;28;20124;-72
2022/05/23 14:47:02;;;;;;;36.53;3.78;;;;;;;;;;5020706;28;20036;-73
2022/05/23 14:49:30;;;;;;;14.10;2.83;;;;;;;;;;5016292;28;20045;-72
2022/05/23 14:51:56;;;;;;;17.65;3.65;;;;;;;;;;5021267;28;20044;-72
2022/05/23 14:57:11;;;;;;;28.38;3.60;;;;;;;;;;5014227;28;20088;-72
2022/05/23 15:02:30;;;;;;;16.13;2.50;;;;;;;;;;5020460;28;20081;-72
2022/05/23 15:05:02;;;;;;;16.83;3.47;;;;;;;;;;5022268;28;20823;-72
2022/05/23 15:07:28;;;;;;;17.23;3.30;;;;;;;;;;5019941;28;20029;-72
2022/05/23 15:09:54;;;;;;;13.40;3.45;;;;;;;;;;5020114;28;20034;-72
2022/05/23 15:12:22;;;;;;;9.80;2.67;;;;;;;;;;5021614;28;20051;-72
2022/05/23 15:14:49;;;;;;;11.88;2.83;;;;;;;;;;5020874;28;20025;-72
2022/05/23 15:17:17;;;;;;;11.10;2.90;;;;;;;;;;5019936;28;20037;-72
2022/05/23 15:19:44;;;;;;;12.77;2.50;;;;;;;;;;5016507;28;20506;-72
2022/05/23 15:22:16;;;;;;;20.88;2.80;;;;;;;;;;5017409;28;20041;-72
2022/05/23 15:24:42;;;;;;;7.97;2.40;;;;;;;;;;5020047;28;20975;-72
2022/05/23 15:27:08;;;;;;;11.32;2.80;;;;;;;;;;5016103;28;20081;-72
2022/05/23 15:29:35;;;;;;;9.45;2.55;;;;;;;;;;5015870;28;20061;-72
2022/05/23 15:32:01;;;;;;;17.20;3.15;;;;;;;;;;5015173;28;20029;-72
2022/05/23 15:34:28;;;;;;;10.25;2.55;;;;;;;;;;5019218;28;20034;-72
2022/05/23 15:36:54;;;;;;;9.98;2.33;;;;;;;;;;5020039;28;20478;-72
2022/05/23 15:39:22;;;;;;;10.23;2.65;;;;;;;;;;5019476;28;20052;-71
2022/05/23 15:41:52;;;;;;;10.25;2.33;;;;;;;;;;5020558;28;20053;-73
2022/05/23 15:44:19;;;;;;;17.15;2.40;;;;;;;;;;5026221;28;20467;-72
2022/05/23 15:46:46;;;;;;;9.98;2.13;;;;;;;;;;5025184;28;20385;-73
2022/05/23 15:49:13;;;;;;;12.18;2.03;;;;;;;;;;5025388;28;20042;-72
2022/05/23 15:51:39;;;;;;;7.57;2.30;;;;;;;;;;5024792;28;20030;-71
2022/05/23 15:54:06;;;;;;;8.60;1.75;;;;;;;;;;5020733;28;20100;-72